sensor_id;sensor_type;location;lat;lon;timestamp;temperature;humidity
5617;DHT22;2830;50.656;7.568;2023-06-14T00:01:14;12.40;99.90
5617;DHT22;2830;50.656;7.568;2023-06-14T00:03:41;12.50;99.90
5617;DHT22;2830;50.656;7.568;2023-06-14T00:06:08;12.40;99.90
5617;DHT22;2830;50.656;7.568;2023-06-14T00:08:34;12.40;99.90
5617;DHT22;2830;50.656;7.568;2023-06-14T00:11:01;12.30;99.90
5617;DHT22;2830;50.656;7.568;2023-06-14T00:13:28;12.30;99.90
5617;DHT22;2830;50.656;7.568;2023-06-14T00:15:55;12.20;99.90
5617;DHT22;2830;50.656;7.568;2023-06-14T00:18:22;12.20;99.90
5617;DHT22;2830;50.656;7.568;2023-06-14T00:20:55;12.20;99.90
5617;DHT22;2830;50.656;7.568;2023-06-14T00:23:22;12.20;99.90
5617;DHT22;2830;50.656;7.568;2023-06-14T00:25:49;12.10;99.90
5617;DHT22;2830;50.656;7.568;2023-06-14T00:28:16;12.10;99.90
5617;DHT22;2830;50.656;7.568;2023-06-14T00:30:42;12.10;99.90
5617;DHT22;2830;50.656;7.568;2023-06-14T00:33:10;12.00;99.90
5617;DHT22;2830;50.656;7.568;2023-06-14T00:35:37;12.00;99.90
5617;DHT22;2830;50.656;7.568;2023-06-14T00:38:04;12.00;99.90
5617;DHT22;2830;50.656;7.568;2023-06-14T00:40:30;12.00;99.90
5617;DHT22;2830;50.656;7.568;2023-06-14T00:42:57;12.00;99.90
5617;DHT22;2830;50.656;7.568;2023-06-14T00:45:24;11.90;99.90
5617;DHT22;2830;50.656;7.568;2023-06-14T00:47:51;11.70;99.90
5617;DHT22;2830;50.656;7.568;2023-06-14T00:50:22;11.70;99.90
5617;DHT22;2830;50.656;7.568;2023-06-14T00:52:49;11.70;99.90
5617;DHT22;2830;50.656;7.568;2023-06-14T00:55:17;11.70;99.90
5617;DHT22;2830;50.656;7.568;2023-06-14T00:57:44;11.60;99.90
5617;DHT22;2830;50.656;7.568;2023-06-14T01:00:12;11.50;99.90
5617;DHT22;2830;50.656;7.568;2023-06-14T01:02:39;11.50;99.90
5617;DHT22;2830;50.656;7.568;2023-06-14T01:05:07;11.50;99.90
5617;DHT22;2830;50.656;7.568;2023-06-14T01:07:43;11.50;99.90
5617;DHT22;2830;50.656;7.568;2023-06-14T01:10:41;11.50;99.90
5617;DHT22;2830;50.656;7.568;2023-06-14T01:13:27;11.40;99.90
5617;DHT22;2830;50.656;7.568;2023-06-14T01:15:55;11.30;99.90
5617;DHT22;2830;50.656;7.568;2023-06-14T01:18:22;11.40;99.90
5617;DHT22;2830;50.656;7.568;2023-06-14T01:20:50;11.30;99.90
5617;DHT22;2830;50.656;7.568;2023-06-14T01:23:18;11.30;99.90
5617;DHT22;2830;50.656;7.568;2023-06-14T01:25:45;11.30;99.90
5617;DHT22;2830;50.656;7.568;2023-06-14T01:28:15;11.40;99.90
5617;DHT22;2830;50.656;7.568;2023-06-14T01:30:45;11.40;99.90
5617;DHT22;2830;50.656;7.568;2023-06-14T01:33:24;11.30;99.90
5617;DHT22;2830;50.656;7.568;2023-06-14T01:35:53;11.20;99.90
5617;DHT22;2830;50.656;7.568;2023-06-14T01:38:24;11.10;99.90
5617;DHT22;2830;50.656;7.568;2023-06-14T01:40:54;11.10;99.90
5617;DHT22;2830;50.656;7.568;2023-06-14T01:43:22;11.10;99.90
5617;DHT22;2830;50.656;7.568;2023-06-14T01:45:50;11.00;99.90
5617;DHT22;2830;50.656;7.568;2023-06-14T01:48:19;11.10;99.90
5617;DHT22;2830;50.656;7.568;2023-06-14T01:50:48;11.10;99.90
5617;DHT22;2830;50.656;7.568;2023-06-14T01:53:15;11.10;99.90
5617;DHT22;2830;50.656;7.568;2023-06-14T01:55:42;11.10;99.90
5617;DHT22;2830;50.656;7.568;2023-06-14T01:58:11;11.00;99.90
5617;DHT22;2830;50.656;7.568;2023-06-14T02:00:37;10.90;99.90
5617;DHT22;2830;50.656;7.568;2023-06-14T02:03:04;10.80;99.90
5617;DHT22;2830;50.656;7.568;2023-06-14T02:05:31;10.80;99.90
5617;DHT22;2830;50.656;7.568;2023-06-14T02:07:58;10.80;99.90
5617;DHT22;2830;50.656;7.568;2023-06-14T02:10:24;10.80;99.90
5617;DHT22;2830;50.656;7.568;2023-06-14T02:12:51;10.80;99.90
5617;DHT22;2830;50.656;7.568;2023-06-14T02:15:18;10.80;99.90
5617;DHT22;2830;50.656;7.568;2023-06-14T02:17:46;10.70;99.90
5617;DHT22;2830;50.656;7.568;2023-06-14T02:20:16;10.60;99.90
5617;DHT22;2830;50.656;7.568;2023-06-14T02:22:44;10.60;99.90
5617;DHT22;2830;50.656;7.568;2023-06-14T02:25:11;10.60;99.90
5617;DHT22;2830;50.656;7.568;2023-06-14T02:27:38;10.70;99.90
5617;DHT22;2830;50.656;7.568;2023-06-14T02:30:05;10.70;99.90
5617;DHT22;2830;50.656;7.568;2023-06-14T02:32:32;10.80;99.90
5617;DHT22;2830;50.656;7.568;2023-06-14T02:35:02;10.70;99.90
5617;DHT22;2830;50.656;7.568;2023-06-14T02:37:29;10.60;99.90
5617;DHT22;2830;50.656;7.568;2023-06-14T02:39:56;10.60;99.90
5617;DHT22;2830;50.656;7.568;2023-06-14T02:42:23;10.50;99.90
5617;DHT22;2830;50.656;7.568;2023-06-14T02:44:49;10.50;99.90
5617;DHT22;2830;50.656;7.568;2023-06-14T02:47:18;10.40;99.90
5617;DHT22;2830;50.656;7.568;2023-06-14T02:49:45;10.50;99.90
5617;DHT22;2830;50.656;7.568;2023-06-14T02:52:15;10.50;99.90
5617;DHT22;2830;50.656;7.568;2023-06-14T02:54:42;10.40;99.90
5617;DHT22;2830;50.656;7.568;2023-06-14T02:57:09;10.40;99.90
5617;DHT22;2830;50.656;7.568;2023-06-14T02:59:38;10.40;99.90
5617;DHT22;2830;50.656;7.568;2023-06-14T03:02:05;10.40;99.90
5617;DHT22;2830;50.656;7.568;2023-06-14T03:04:31;10.40;99.90
5617;DHT22;2830;50.656;7.568;2023-06-14T03:07:04;10.30;99.90
5617;DHT22;2830;50.656;7.568;2023-06-14T03:09:36;10.30;99.90
5617;DHT22;2830;50.656;7.568;2023-06-14T03:12:05;10.20;99.90
5617;DHT22;2830;50.656;7.568;2023-06-14T03:14:33;10.10;99.90
5617;DHT22;2830;50.656;7.568;2023-06-14T03:17:02;10.10;99.90
5617;DHT22;2830;50.656;7.568;2023-06-14T03:19:29;10.20;99.90
5617;DHT22;2830;50.656;7.568;2023-06-14T03:21:56;10.20;99.90
5617;DHT22;2830;50.656;7.568;2023-06-14T03:24:25;10.20;99.90
5617;DHT22;2830;50.656;7.568;2023-06-14T03:26:55;10.20;99.90
5617;DHT22;2830;50.656;7.568;2023-06-14T03:29:23;10.20;99.90
5617;DHT22;2830;50.656;7.568;2023-06-14T03:31:58;10.10;99.90
5617;DHT22;2830;50.656;7.568;2023-06-14T03:34:24;10.20;99.90
5617;DHT22;2830;50.656;7.568;2023-06-14T03:36:51;10.10;99.90
5617;DHT22;2830;50.656;7.568;2023-06-14T03:39:18;10.00;99.90
5617;DHT22;2830;50.656;7.568;2023-06-14T03:41:46;10.00;99.90
5617;DHT22;2830;50.656;7.568;2023-06-14T03:44:15;10.10;99.90
5617;DHT22;2830;50.656;7.568;2023-06-14T03:46:44;10.10;99.90
5617;DHT22;2830;50.656;7.568;2023-06-14T03:49:11;10.20;99.90
5617;DHT22;2830;50.656;7.568;2023-06-14T03:51:38;10.20;99.90
5617;DHT22;2830;50.656;7.568;2023-06-14T03:54:06;10.10;99.90
5617;DHT22;2830;50.656;7.568;2023-06-14T03:56:53;10.20;99.90
5617;DHT22;2830;50.656;7.568;2023-06-14T03:59:20;10.20;99.90
5617;DHT22;2830;50.656;7.568;2023-06-14T04:01:47;10.20;99.90
5617;DHT22;2830;50.656;7.568;2023-06-14T04:04:16;10.10;99.90
5617;DHT22;2830;50.656;7.568;2023-06-14T04:06:43;10.10;99.90
5617;DHT22;2830;50.656;7.568;2023-06-14T04:09:10;10.20;99.90
5617;DHT22;2830;50.656;7.568;2023-06-14T04:11:36;10.20;99.90
5617;DHT22;2830;50.656;7.568;2023-06-14T04:14:03;10.30;99.90
5617;DHT22;2830;50.656;7.568;2023-06-14T04:16:30;10.30;99.90
5617;DHT22;2830;50.656;7.568;2023-06-14T04:18:57;10.30;99.90
5617;DHT22;2830;50.656;7.568;2023-06-14T04:21:24;10.40;99.90
5617;DHT22;2830;50.656;7.568;2023-06-14T04:23:52;10.40;99.90
5617;DHT22;2830;50.656;7.568;2023-06-14T04:26:21;10.40;99.90
5617;DHT22;2830;50.656;7.568;2023-06-14T04:28:53;10.50;99.90
5617;DHT22;2830;50.656;7.568;2023-06-14T04:31:23;10.60;99.90
5617;DHT22;2830;50.656;7.568;2023-06-14T04:33:56;10.60;99.90
5617;DHT22;2830;50.656;7.568;2023-06-14T04:36:22;10.70;99.90
5617;DHT22;2830;50.656;7.568;2023-06-14T04:38:50;10.90;99.90
5617;DHT22;2830;50.656;7.568;2023-06-14T04:41:21;10.90;99.90
5617;DHT22;2830;50.656;7.568;2023-06-14T04:43:49;11.10;99.90
5617;DHT22;2830;50.656;7.568;2023-06-14T04:46:16;11.10;99.90
5617;DHT22;2830;50.656;7.568;2023-06-14T04:48:43;11.10;99.90
5617;DHT22;2830;50.656;7.568;2023-06-14T04:51:11;11.20;99.90
5617;DHT22;2830;50.656;7.568;2023-06-14T04:53:39;11.30;99.90
5617;DHT22;2830;50.656;7.568;2023-06-14T04:56:06;11.50;99.90
5617;DHT22;2830;50.656;7.568;2023-06-14T04:58:33;11.60;99.90
5617;DHT22;2830;50.656;7.568;2023-06-14T05:01:00;11.70;99.90
5617;DHT22;2830;50.656;7.568;2023-06-14T05:03:28;11.80;99.90
5617;DHT22;2830;50.656;7.568;2023-06-14T05:05:57;11.90;99.90
5617;DHT22;2830;50.656;7.568;2023-06-14T05:08:24;12.00;99.90
5617;DHT22;2830;50.656;7.568;2023-06-14T05:10:50;12.20;99.90
5617;DHT22;2830;50.656;7.568;2023-06-14T05:13:18;12.50;99.90
5617;DHT22;2830;50.656;7.568;2023-06-14T05:18:12;13.50;99.90
5617;DHT22;2830;50.656;7.568;2023-06-14T05:20:40;14.00;99.90
5617;DHT22;2830;50.656;7.568;2023-06-14T05:23:09;14.70;99.70
5617;DHT22;2830;50.656;7.568;2023-06-14T05:25:44;15.30;98.20
5617;DHT22;2830;50.656;7.568;2023-06-14T05:28:12;16.00;96.90
5617;DHT22;2830;50.656;7.568;2023-06-14T05:30:39;16.60;95.80
5617;DHT22;2830;50.656;7.568;2023-06-14T05:33:08;17.10;94.90
5617;DHT22;2830;50.656;7.568;2023-06-14T05:35:35;17.30;94.10
5617;DHT22;2830;50.656;7.568;2023-06-14T05:38:02;17.60;93.80
5617;DHT22;2830;50.656;7.568;2023-06-14T05:40:28;17.90;91.60
5617;DHT22;2830;50.656;7.568;2023-06-14T05:42:55;18.20;92.90
5617;DHT22;2830;50.656;7.568;2023-06-14T05:45:22;18.70;91.70
5617;DHT22;2830;50.656;7.568;2023-06-14T05:47:49;19.10;90.70
5617;DHT22;2830;50.656;7.568;2023-06-14T05:50:17;19.30;91.00
5617;DHT22;2830;50.656;7.568;2023-06-14T05:52:43;19.80;88.60
5617;DHT22;2830;50.656;7.568;2023-06-14T05:55:10;19.90;88.00
5617;DHT22;2830;50.656;7.568;2023-06-14T05:57:39;20.30;88.00
5617;DHT22;2830;50.656;7.568;2023-06-14T06:00:07;20.60;85.70
5617;DHT22;2830;50.656;7.568;2023-06-14T06:02:37;20.80;86.50
5617;DHT22;2830;50.656;7.568;2023-06-14T06:05:04;21.10;86.60
5617;DHT22;2830;50.656;7.568;2023-06-14T06:07:32;21.60;84.70
5617;DHT22;2830;50.656;7.568;2023-06-14T06:10:03;22.30;82.00
5617;DHT22;2830;50.656;7.568;2023-06-14T06:12:30;22.80;80.50
5617;DHT22;2830;50.656;7.568;2023-06-14T06:14:57;23.10;77.00
5617;DHT22;2830;50.656;7.568;2023-06-14T06:17:25;23.20;75.60
5617;DHT22;2830;50.656;7.568;2023-06-14T06:19:51;23.40;68.60
5617;DHT22;2830;50.656;7.568;2023-06-14T06:22:21;23.40;66.50
5617;DHT22;2830;50.656;7.568;2023-06-14T06:24:47;23.20;66.00
5617;DHT22;2830;50.656;7.568;2023-06-14T06:27:14;23.00;63.70
5617;DHT22;2830;50.656;7.568;2023-06-14T06:29:42;22.70;64.20
5617;DHT22;2830;50.656;7.568;2023-06-14T06:32:10;22.70;64.80
5617;DHT22;2830;50.656;7.568;2023-06-14T06:34:37;23.10;64.00
5617;DHT22;2830;50.656;7.568;2023-06-14T06:37:04;23.70;60.50
5617;DHT22;2830;50.656;7.568;2023-06-14T06:39:30;24.10;59.70
5617;DHT22;2830;50.656;7.568;2023-06-14T06:41:57;24.60;56.30
5617;DHT22;2830;50.656;7.568;2023-06-14T06:44:24;24.70;56.20
5617;DHT22;2830;50.656;7.568;2023-06-14T06:46:51;25.30;56.70
5617;DHT22;2830;50.656;7.568;2023-06-14T06:49:18;25.60;52.50
5617;DHT22;2830;50.656;7.568;2023-06-14T06:52:03;25.20;50.20
5617;DHT22;2830;50.656;7.568;2023-06-14T06:54:30;24.90;52.40
5617;DHT22;2830;50.656;7.568;2023-06-14T06:56:56;24.60;51.00
5617;DHT22;2830;50.656;7.568;2023-06-14T06:59:23;24.90;50.60
5617;DHT22;2830;50.656;7.568;2023-06-14T07:01:50;25.20;49.70
5617;DHT22;2830;50.656;7.568;2023-06-14T07:04:20;24.60;49.40
5617;DHT22;2830;50.656;7.568;2023-06-14T07:06:47;24.80;48.60
5617;DHT22;2830;50.656;7.568;2023-06-14T07:09:14;25.00;47.90
5617;DHT22;2830;50.656;7.568;2023-06-14T07:11:46;24.40;49.90
5617;DHT22;2830;50.656;7.568;2023-06-14T07:14:13;24.80;49.10
5617;DHT22;2830;50.656;7.568;2023-06-14T07:16:40;25.20;49.00
5617;DHT22;2830;50.656;7.568;2023-06-14T07:19:07;25.70;47.90
5617;DHT22;2830;50.656;7.568;2023-06-14T07:21:35;26.20;47.80
5617;DHT22;2830;50.656;7.568;2023-06-14T07:24:05;26.10;48.00
5617;DHT22;2830;50.656;7.568;2023-06-14T07:26:33;26.50;47.70
5617;DHT22;2830;50.656;7.568;2023-06-14T07:29:00;26.70;46.10
5617;DHT22;2830;50.656;7.568;2023-06-14T07:31:26;26.40;46.20
5617;DHT22;2830;50.656;7.568;2023-06-14T07:33:54;26.40;45.20
5617;DHT22;2830;50.656;7.568;2023-06-14T07:36:22;26.70;45.70
5617;DHT22;2830;50.656;7.568;2023-06-14T07:38:48;27.00;44.40
5617;DHT22;2830;50.656;7.568;2023-06-14T07:41:16;26.60;44.60
5617;DHT22;2830;50.656;7.568;2023-06-14T07:43:42;26.60;44.70
5617;DHT22;2830;50.656;7.568;2023-06-14T07:46:09;26.90;44.50
5617;DHT22;2830;50.656;7.568;2023-06-14T07:48:36;27.10;44.10
5617;DHT22;2830;50.656;7.568;2023-06-14T07:51:03;26.90;42.40
5617;DHT22;2830;50.656;7.568;2023-06-14T07:53:31;27.50;43.70
5617;DHT22;2830;50.656;7.568;2023-06-14T07:55:57;27.60;42.20
5617;DHT22;2830;50.656;7.568;2023-06-14T07:58:24;27.40;43.10
5617;DHT22;2830;50.656;7.568;2023-06-14T08:00:51;27.60;41.40
5617;DHT22;2830;50.656;7.568;2023-06-14T08:03:18;28.20;42.10
5617;DHT22;2830;50.656;7.568;2023-06-14T08:05:45;27.80;41.20
5617;DHT22;2830;50.656;7.568;2023-06-14T08:08:12;27.60;41.60
5617;DHT22;2830;50.656;7.568;2023-06-14T08:10:39;27.80;40.90
5617;DHT22;2830;50.656;7.568;2023-06-14T08:13:06;28.00;40.10
5617;DHT22;2830;50.656;7.568;2023-06-14T08:15:33;28.50;40.30
5617;DHT22;2830;50.656;7.568;2023-06-14T08:18:00;28.40;40.20
5617;DHT22;2830;50.656;7.568;2023-06-14T08:20:27;28.90;41.30
5617;DHT22;2830;50.656;7.568;2023-06-14T08:22:56;28.80;39.50
5617;DHT22;2830;50.656;7.568;2023-06-14T08:25:23;29.10;40.50
5617;DHT22;2830;50.656;7.568;2023-06-14T08:27:50;29.80;37.70
5617;DHT22;2830;50.656;7.568;2023-06-14T08:30:17;29.70;39.20
5617;DHT22;2830;50.656;7.568;2023-06-14T08:32:44;29.60;36.70
5617;DHT22;2830;50.656;7.568;2023-06-14T08:35:11;29.60;37.50
5617;DHT22;2830;50.656;7.568;2023-06-14T08:37:40;29.70;36.90
5617;DHT22;2830;50.656;7.568;2023-06-14T08:40:28;29.90;36.40
5617;DHT22;2830;50.656;7.568;2023-06-14T08:42:56;30.20;35.80
5617;DHT22;2830;50.656;7.568;2023-06-14T08:45:23;30.50;35.10
5617;DHT22;2830;50.656;7.568;2023-06-14T08:47:53;30.40;35.40
5617;DHT22;2830;50.656;7.568;2023-06-14T08:50:26;29.40;34.90
5617;DHT22;2830;50.656;7.568;2023-06-14T08:52:56;29.50;36.50
5617;DHT22;2830;50.656;7.568;2023-06-14T08:55:24;29.60;36.80
5617;DHT22;2830;50.656;7.568;2023-06-14T08:57:54;29.50;36.90
5617;DHT22;2830;50.656;7.568;2023-06-14T09:00:22;29.70;36.50
5617;DHT22;2830;50.656;7.568;2023-06-14T09:02:49;30.00;37.20
5617;DHT22;2830;50.656;7.568;2023-06-14T09:05:16;30.70;37.80
5617;DHT22;2830;50.656;7.568;2023-06-14T09:07:44;31.00;39.00
5617;DHT22;2830;50.656;7.568;2023-06-14T09:10:14;31.20;35.10
5617;DHT22;2830;50.656;7.568;2023-06-14T09:12:42;30.20;35.60
5617;DHT22;2830;50.656;7.568;2023-06-14T09:15:09;29.60;37.70
5617;DHT22;2830;50.656;7.568;2023-06-14T09:17:37;30.00;36.40
5617;DHT22;2830;50.656;7.568;2023-06-14T09:20:08;30.20;35.70
5617;DHT22;2830;50.656;7.568;2023-06-14T09:22:46;30.70;37.20
5617;DHT22;2830;50.656;7.568;2023-06-14T09:25:13;30.20;36.20
5617;DHT22;2830;50.656;7.568;2023-06-14T09:27:59;29.80;37.00
5617;DHT22;2830;50.656;7.568;2023-06-14T09:30:26;30.50;36.70
5617;DHT22;2830;50.656;7.568;2023-06-14T09:32:53;31.00;36.30
5617;DHT22;2830;50.656;7.568;2023-06-14T09:35:20;31.90;35.30
5617;DHT22;2830;50.656;7.568;2023-06-14T09:37:47;32.20;35.90
5617;DHT22;2830;50.656;7.568;2023-06-14T09:40:20;31.80;35.30
5617;DHT22;2830;50.656;7.568;2023-06-14T09:42:47;32.00;35.70
5617;DHT22;2830;50.656;7.568;2023-06-14T09:45:15;31.70;34.60
5617;DHT22;2830;50.656;7.568;2023-06-14T09:47:46;31.50;35.20
5617;DHT22;2830;50.656;7.568;2023-06-14T09:50:32;31.60;35.80
5617;DHT22;2830;50.656;7.568;2023-06-14T09:53:03;32.20;35.40
5617;DHT22;2830;50.656;7.568;2023-06-14T09:55:34;32.60;34.70
5617;DHT22;2830;50.656;7.568;2023-06-14T09:58:05;32.80;33.90
5617;DHT22;2830;50.656;7.568;2023-06-14T10:00:34;33.10;34.10
5617;DHT22;2830;50.656;7.568;2023-06-14T10:03:08;33.40;33.10
5617;DHT22;2830;50.656;7.568;2023-06-14T10:05:39;33.40;33.60
5617;DHT22;2830;50.656;7.568;2023-06-14T10:08:14;33.50;34.00
5617;DHT22;2830;50.656;7.568;2023-06-14T10:10:45;33.80;33.40
5617;DHT22;2830;50.656;7.568;2023-06-14T10:13:12;33.90;33.20
5617;DHT22;2830;50.656;7.568;2023-06-14T10:15:54;33.60;33.60
5617;DHT22;2830;50.656;7.568;2023-06-14T10:23:53;32.80;32.10
5617;DHT22;2830;50.656;7.568;2023-06-14T10:26:23;32.70;32.40
5617;DHT22;2830;50.656;7.568;2023-06-14T10:29:00;33.30;32.30
5617;DHT22;2830;50.656;7.568;2023-06-14T10:31:40;32.70;31.00
5617;DHT22;2830;50.656;7.568;2023-06-14T10:34:08;32.10;31.70
5617;DHT22;2830;50.656;7.568;2023-06-14T10:36:35;32.80;31.90
5617;DHT22;2830;50.656;7.568;2023-06-14T10:39:15;33.30;31.60
5617;DHT22;2830;50.656;7.568;2023-06-14T10:41:54;33.30;31.70
5617;DHT22;2830;50.656;7.568;2023-06-14T10:46:49;34.40;31.60
5617;DHT22;2830;50.656;7.568;2023-06-14T10:49:19;33.40;31.90
5617;DHT22;2830;50.656;7.568;2023-06-14T10:51:50;33.60;31.30
5617;DHT22;2830;50.656;7.568;2023-06-14T10:54:21;33.30;34.70
5617;DHT22;2830;50.656;7.568;2023-06-14T10:56:50;33.50;32.90
5617;DHT22;2830;50.656;7.568;2023-06-14T10:59:19;33.30;32.60
5617;DHT22;2830;50.656;7.568;2023-06-14T11:04:42;33.00;32.60
5617;DHT22;2830;50.656;7.568;2023-06-14T11:07:46;33.30;31.70
5617;DHT22;2830;50.656;7.568;2023-06-14T11:10:33;32.60;32.00
5617;DHT22;2830;50.656;7.568;2023-06-14T11:13:03;32.30;33.00
5617;DHT22;2830;50.656;7.568;2023-06-14T11:15:30;32.30;33.00
5617;DHT22;2830;50.656;7.568;2023-06-14T11:18:00;32.80;32.30
5617;DHT22;2830;50.656;7.568;2023-06-14T11:20:32;33.40;34.80
5617;DHT22;2830;50.656;7.568;2023-06-14T11:22:59;33.30;31.70
5617;DHT22;2830;50.656;7.568;2023-06-14T11:25:27;32.80;31.40
5617;DHT22;2830;50.656;7.568;2023-06-14T11:27:57;32.30;32.60
5617;DHT22;2830;50.656;7.568;2023-06-14T11:30:25;31.70;32.80
5617;DHT22;2830;50.656;7.568;2023-06-14T11:32:55;31.30;31.70
5617;DHT22;2830;50.656;7.568;2023-06-14T11:35:25;31.50;34.60
5617;DHT22;2830;50.656;7.568;2023-06-14T11:37:56;32.00;32.40
5617;DHT22;2830;50.656;7.568;2023-06-14T11:40:27;32.40;34.20
5617;DHT22;2830;50.656;7.568;2023-06-14T11:43:01;32.00;33.40
5617;DHT22;2830;50.656;7.568;2023-06-14T11:45:29;30.60;33.10
5617;DHT22;2830;50.656;7.568;2023-06-14T11:47:58;30.80;33.70
5617;DHT22;2830;50.656;7.568;2023-06-14T11:50:26;31.20;34.20
5617;DHT22;2830;50.656;7.568;2023-06-14T11:52:54;30.80;33.90
5617;DHT22;2830;50.656;7.568;2023-06-14T11:55:23;31.30;35.10
5617;DHT22;2830;50.656;7.568;2023-06-14T11:57:50;31.60;33.80
5617;DHT22;2830;50.656;7.568;2023-06-14T12:00:17;30.70;33.90
5617;DHT22;2830;50.656;7.568;2023-06-14T12:02:56;30.60;34.00
5617;DHT22;2830;50.656;7.568;2023-06-14T12:05:24;30.30;34.80
5617;DHT22;2830;50.656;7.568;2023-06-14T12:08:03;29.70;35.00
5617;DHT22;2830;50.656;7.568;2023-06-14T12:10:40;29.50;37.70
5617;DHT22;2830;50.656;7.568;2023-06-14T12:13:10;29.20;36.50
5617;DHT22;2830;50.656;7.568;2023-06-14T12:15:37;29.20;39.00
5617;DHT22;2830;50.656;7.568;2023-06-14T12:18:07;29.30;35.20
5617;DHT22;2830;50.656;7.568;2023-06-14T12:20:34;29.30;37.30
5617;DHT22;2830;50.656;7.568;2023-06-14T12:23:03;29.10;36.90
5617;DHT22;2830;50.656;7.568;2023-06-14T12:25:35;29.10;37.40
5617;DHT22;2830;50.656;7.568;2023-06-14T12:28:09;28.90;38.30
5617;DHT22;2830;50.656;7.568;2023-06-14T12:30:37;28.90;36.90
5617;DHT22;2830;50.656;7.568;2023-06-14T12:33:04;28.70;36.90
5617;DHT22;2830;50.656;7.568;2023-06-14T12:35:32;28.50;39.20
5617;DHT22;2830;50.656;7.568;2023-06-14T12:37:59;28.80;38.70
5617;DHT22;2830;50.656;7.568;2023-06-14T12:40:25;29.00;37.80
5617;DHT22;2830;50.656;7.568;2023-06-14T12:42:53;29.20;38.50
5617;DHT22;2830;50.656;7.568;2023-06-14T12:45:19;29.00;36.90
5617;DHT22;2830;50.656;7.568;2023-06-14T12:47:46;28.30;37.90
5617;DHT22;2830;50.656;7.568;2023-06-14T12:50:13;28.10;38.60
5617;DHT22;2830;50.656;7.568;2023-06-14T12:52:40;28.10;39.20
5617;DHT22;2830;50.656;7.568;2023-06-14T12:55:07;28.00;39.60
5617;DHT22;2830;50.656;7.568;2023-06-14T12:57:34;27.70;39.30
5617;DHT22;2830;50.656;7.568;2023-06-14T13:00:04;27.70;40.00
5617;DHT22;2830;50.656;7.568;2023-06-14T13:02:31;28.00;40.70
5617;DHT22;2830;50.656;7.568;2023-06-14T13:04:58;28.40;39.60
5617;DHT22;2830;50.656;7.568;2023-06-14T13:07:25;27.90;39.10
5617;DHT22;2830;50.656;7.568;2023-06-14T13:09:52;28.50;40.00
5617;DHT22;2830;50.656;7.568;2023-06-14T13:12:18;28.30;39.50
5617;DHT22;2830;50.656;7.568;2023-06-14T13:14:46;28.40;38.20
5617;DHT22;2830;50.656;7.568;2023-06-14T13:17:13;28.50;38.00
5617;DHT22;2830;50.656;7.568;2023-06-14T13:19:39;28.50;38.00
5617;DHT22;2830;50.656;7.568;2023-06-14T13:22:06;28.60;39.00
5617;DHT22;2830;50.656;7.568;2023-06-14T13:24:34;27.70;39.40
5617;DHT22;2830;50.656;7.568;2023-06-14T13:27:01;27.30;40.40
5617;DHT22;2830;50.656;7.568;2023-06-14T13:29:28;26.90;40.70
5617;DHT22;2830;50.656;7.568;2023-06-14T13:31:54;26.60;41.00
5617;DHT22;2830;50.656;7.568;2023-06-14T13:34:22;26.30;41.50
5617;DHT22;2830;50.656;7.568;2023-06-14T13:36:49;26.60;42.60
5617;DHT22;2830;50.656;7.568;2023-06-14T13:39:16;27.00;40.30
5617;DHT22;2830;50.656;7.568;2023-06-14T13:41:43;26.90;41.30
5617;DHT22;2830;50.656;7.568;2023-06-14T13:44:09;27.00;40.00
5617;DHT22;2830;50.656;7.568;2023-06-14T13:46:42;26.80;41.10
5617;DHT22;2830;50.656;7.568;2023-06-14T13:49:09;26.40;40.90
5617;DHT22;2830;50.656;7.568;2023-06-14T13:51:37;26.40;42.80
5617;DHT22;2830;50.656;7.568;2023-06-14T13:54:04;26.80;42.20
5617;DHT22;2830;50.656;7.568;2023-06-14T13:56:31;26.90;40.80
5617;DHT22;2830;50.656;7.568;2023-06-14T13:58:57;26.40;41.60
5617;DHT22;2830;50.656;7.568;2023-06-14T14:01:24;25.90;41.60
5617;DHT22;2830;50.656;7.568;2023-06-14T14:03:52;25.60;42.90
5617;DHT22;2830;50.656;7.568;2023-06-14T14:06:19;25.70;42.70
5617;DHT22;2830;50.656;7.568;2023-06-14T14:08:46;25.70;42.30
5617;DHT22;2830;50.656;7.568;2023-06-14T14:11:13;25.70;42.10
5617;DHT22;2830;50.656;7.568;2023-06-14T14:13:40;25.90;42.70
5617;DHT22;2830;50.656;7.568;2023-06-14T14:16:08;25.80;42.50
5617;DHT22;2830;50.656;7.568;2023-06-14T14:18:35;25.50;43.00
5617;DHT22;2830;50.656;7.568;2023-06-14T14:21:02;25.60;43.30
5617;DHT22;2830;50.656;7.568;2023-06-14T14:23:29;25.90;45.00
5617;DHT22;2830;50.656;7.568;2023-06-14T14:25:56;26.10;42.90
5617;DHT22;2830;50.656;7.568;2023-06-14T14:28:23;25.80;42.40
5617;DHT22;2830;50.656;7.568;2023-06-14T14:30:50;25.10;43.30
5617;DHT22;2830;50.656;7.568;2023-06-14T14:33:17;24.80;44.60
5617;DHT22;2830;50.656;7.568;2023-06-14T14:35:44;24.70;44.60
5617;DHT22;2830;50.656;7.568;2023-06-14T14:38:15;24.80;44.50
5617;DHT22;2830;50.656;7.568;2023-06-14T14:40:43;25.00;43.00
5617;DHT22;2830;50.656;7.568;2023-06-14T14:43:11;25.20;43.80
5617;DHT22;2830;50.656;7.568;2023-06-14T14:45:37;25.50;45.80
5617;DHT22;2830;50.656;7.568;2023-06-14T14:48:04;25.60;43.30
5617;DHT22;2830;50.656;7.568;2023-06-14T14:50:32;25.50;42.30
5617;DHT22;2830;50.656;7.568;2023-06-14T14:52:59;25.00;43.50
5617;DHT22;2830;50.656;7.568;2023-06-14T14:55:26;24.50;43.70
5617;DHT22;2830;50.656;7.568;2023-06-14T14:57:52;24.30;44.00
5617;DHT22;2830;50.656;7.568;2023-06-14T15:00:20;24.30;45.10
5617;DHT22;2830;50.656;7.568;2023-06-14T15:02:47;24.40;44.90
5617;DHT22;2830;50.656;7.568;2023-06-14T15:05:14;24.90;45.10
5617;DHT22;2830;50.656;7.568;2023-06-14T15:07:41;25.20;44.20
5617;DHT22;2830;50.656;7.568;2023-06-14T15:10:08;25.60;43.90
5617;DHT22;2830;50.656;7.568;2023-06-14T15:12:35;25.50;42.80
5617;DHT22;2830;50.656;7.568;2023-06-14T15:15:02;25.10;43.20
5617;DHT22;2830;50.656;7.568;2023-06-14T15:17:29;24.70;43.60
5617;DHT22;2830;50.656;7.568;2023-06-14T15:19:56;24.70;44.20
5617;DHT22;2830;50.656;7.568;2023-06-14T15:22:23;24.50;43.30
5617;DHT22;2830;50.656;7.568;2023-06-14T15:24:49;24.50;44.10
5617;DHT22;2830;50.656;7.568;2023-06-14T15:27:17;24.60;43.90
5617;DHT22;2830;50.656;7.568;2023-06-14T15:29:44;24.80;44.60
5617;DHT22;2830;50.656;7.568;2023-06-14T15:32:14;24.70;44.50
5617;DHT22;2830;50.656;7.568;2023-06-14T15:34:41;24.80;42.30
5617;DHT22;2830;50.656;7.568;2023-06-14T15:37:08;24.90;43.20
5617;DHT22;2830;50.656;7.568;2023-06-14T15:39:35;25.10;43.40
5617;DHT22;2830;50.656;7.568;2023-06-14T15:42:03;25.10;43.30
5617;DHT22;2830;50.656;7.568;2023-06-14T15:44:30;25.20;43.40
5617;DHT22;2830;50.656;7.568;2023-06-14T15:46:56;24.80;42.50
5617;DHT22;2830;50.656;7.568;2023-06-14T15:49:23;24.60;42.80
5617;DHT22;2830;50.656;7.568;2023-06-14T15:51:50;24.60;43.00
5617;DHT22;2830;50.656;7.568;2023-06-14T15:54:16;24.60;44.20
5617;DHT22;2830;50.656;7.568;2023-06-14T15:56:43;24.70;43.70
5617;DHT22;2830;50.656;7.568;2023-06-14T15:59:11;24.80;45.00
5617;DHT22;2830;50.656;7.568;2023-06-14T16:01:37;24.60;43.90
5617;DHT22;2830;50.656;7.568;2023-06-14T16:04:04;24.60;43.10
5617;DHT22;2830;50.656;7.568;2023-06-14T16:06:31;24.30;44.30
5617;DHT22;2830;50.656;7.568;2023-06-14T16:08:58;24.20;44.10
5617;DHT22;2830;50.656;7.568;2023-06-14T16:11:24;23.80;44.50
5617;DHT22;2830;50.656;7.568;2023-06-14T16:13:51;23.70;45.40
5617;DHT22;2830;50.656;7.568;2023-06-14T16:16:18;23.80;45.20
5617;DHT22;2830;50.656;7.568;2023-06-14T16:18:45;24.00;44.80
5617;DHT22;2830;50.656;7.568;2023-06-14T16:21:12;24.20;44.00
5617;DHT22;2830;50.656;7.568;2023-06-14T16:23:39;24.30;44.10